Time;durP1;ratioP1;P1;durP2;ratioP2;P2;SDS_P1;SDS_P2;PMS_P1;PMS_P2;Temp;Humidity;BMP_temperature;BMP_pressure;BME280_temperature;BME280_humidity;BME280_pressure;Samples;Min_cycle;Max_cycle;Signal;HPM_P1;HPM_P2
2021/01/23 00:00:29;;;;;;;1.63;1.57;;;5.20;48.60;;;;;;5031971;28;20177;-69
2021/01/23 00:02:55;;;;;;;1.57;1.57;;;5.50;48.80;;;;;;5030343;28;20175;-69
2021/01/23 00:05:20;;;;;;;1.90;1.80;;;5.80;48.00;;;;;;5031813;28;20172;-69
2021/01/23 00:07:46;;;;;;;2.13;1.70;;;5.70;47.00;;;;;;5031678;28;20609;-69
2021/01/23 00:10:12;;;;;;;1.80;1.70;;;5.50;48.30;;;;;;5031872;28;20204;-69
2021/01/23 00:12:37;;;;;;;1.57;1.57;;;5.70;47.40;;;;;;5031774;28;20251;-69
2021/01/23 00:15:04;;;;;;;1.80;1.80;;;5.70;47.60;;;;;;5031611;28;20495;-68
2021/01/23 00:17:30;;;;;;;1.97;1.87;;;5.30;47.60;;;;;;5031297;28;20196;-69
2021/01/23 00:19:55;;;;;;;1.50;1.50;;;5.40;49.60;;;;;;5031515;28;20439;-69
2021/01/23 00:22:21;;;;;;;1.90;1.80;;;5.60;48.80;;;;;;5031376;28;20182;-69
2021/01/23 00:24:46;;;;;;;2.30;2.20;;;5.40;48.60;;;;;;5031318;28;20192;-69
2021/01/23 00:27:12;;;;;;;1.97;1.87;;;5.60;48.80;;;;;;5030986;28;20258;-69
2021/01/23 00:29:37;;;;;;;2.10;2.00;;;5.60;48.80;;;;;;5031276;28;20173;-68
2021/01/23 00:32:03;;;;;;;1.90;1.80;;;5.40;48.00;;;;;;5031235;28;20199;-68
2021/01/23 00:34:28;;;;;;;2.00;1.90;;;5.60;49.10;;;;;;5031178;28;20172;-69
2021/01/23 00:36:54;;;;;;;2.07;1.97;;;5.80;48.30;;;;;;5031103;28;20224;-69
2021/01/23 00:39:19;;;;;;;2.40;2.30;;;5.70;48.60;;;;;;5030893;28;20173;-69
2021/01/23 00:41:45;;;;;;;2.50;2.40;;;5.70;48.50;;;;;;5031076;28;20594;-69
2021/01/23 00:44:10;;;;;;;2.13;2.03;;;5.60;47.10;;;;;;5031061;28;20176;-69
2021/01/23 00:46:36;;;;;;;2.57;2.47;;;5.60;48.60;;;;;;5030123;28;20200;-69
2021/01/23 00:49:01;;;;;;;1.90;1.80;;;5.50;48.80;;;;;;5030770;28;20204;-69
2021/01/23 00:51:27;;;;;;;2.33;2.23;;;5.50;49.10;;;;;;5030892;28;20263;-69
2021/01/23 00:53:52;;;;;;;2.43;2.33;;;5.70;48.80;;;;;;5030945;28;20594;-69
2021/01/23 00:56:18;;;;;;;2.40;2.30;;;5.70;48.80;;;;;;5030870;28;20193;-68
2021/01/23 00:58:43;;;;;;;2.77;2.60;;;5.60;48.80;;;;;;5030807;28;20203;-69
2021/01/23 01:01:09;;;;;;;3.13;2.93;;;5.40;49.20;;;;;;5030942;28;20589;-69
2021/01/23 01:03:34;;;;;;;3.00;2.80;;;5.50;48.70;;;;;;5031014;28;20227;-69
2021/01/23 01:06:00;;;;;;;3.20;3.00;;;5.30;49.40;;;;;;5031070;28;20188;-69
2021/01/23 01:08:26;;;;;;;3.37;3.17;;;5.40;49.60;;;;;;5030815;28;20201;-69
2021/01/23 01:10:53;;;;;;;2.90;2.70;;;5.40;49.90;;;;;;5031124;28;20399;-69
2021/01/23 01:13:19;;;;;;;3.40;3.20;;;5.40;48.90;;;;;;5030899;28;20816;-69
2021/01/23 01:15:45;;;;;;;4.00;3.80;;;5.40;48.60;;;;;;5030806;28;20419;-69
2021/01/23 01:18:11;;;;;;;4.20;3.90;;;5.50;49.00;;;;;;5030652;28;20502;-69
2021/01/23 01:20:36;;;;;;;4.97;4.67;;;5.50;48.70;;;;;;5030929;28;20703;-68
2021/01/23 01:23:02;;;;;;;4.17;3.87;;;5.40;50.60;;;;;;5030665;28;20188;-69
2021/01/23 01:25:27;;;;;;;4.80;4.40;;;5.30;50.80;;;;;;5030676;28;20200;-69
2021/01/23 01:27:53;;;;;;;4.43;4.13;;;5.50;50.60;;;;;;5030371;28;20215;-69
2021/01/23 01:30:20;;;;;;;4.20;3.90;;;5.50;49.40;;;;;;5030659;28;20176;-69
2021/01/23 01:32:46;;;;;;;4.50;4.20;;;5.60;48.80;;;;;;5030601;28;20538;-69
2021/01/23 01:35:12;;;;;;;4.20;4.00;;;5.60;49.60;;;;;;5030501;28;20494;-69
2021/01/23 01:37:37;;;;;;;4.83;4.53;;;5.70;48.80;;;;;;5030391;28;20184;-69
2021/01/23 01:40:04;;;;;;;4.70;4.40;;;5.70;48.80;;;;;;5030555;28;20191;-68
2021/01/23 01:42:30;;;;;;;4.47;4.20;;;5.70;49.20;;;;;;5030555;28;20180;-69
2021/01/23 01:44:55;;;;;;;4.30;4.00;;;5.60;50.40;;;;;;5030585;28;20431;-69
2021/01/23 01:47:21;;;;;;;4.20;3.90;;;5.60;48.80;;;;;;5030150;28;20345;-69
2021/01/23 01:49:48;;;;;;;3.20;3.00;;;5.40;49.90;;;;;;5030509;28;20207;-69
2021/01/23 01:52:14;;;;;;;2.93;2.73;;;5.50;50.00;;;;;;5030334;28;20173;-68
2021/01/23 01:54:40;;;;;;;3.30;3.10;;;5.50;48.70;;;;;;5030443;28;20806;-69
2021/01/23 01:57:06;;;;;;;2.50;2.30;;;5.50;50.80;;;;;;5030093;28;20836;-69
2021/01/23 01:59:32;;;;;;;2.60;2.50;;;5.50;50.40;;;;;;5033864;28;20443;-69
2021/01/23 02:02:09;;;;;;;3.23;3.03;;;5.60;48.80;;;;;;5034137;28;20533;-69
2021/01/23 02:05:04;;;;;;;2.70;2.60;;;5.70;49.90;;;;;;5034024;28;20920;-69
2021/01/23 02:07:57;;;;;;;2.37;2.27;;;5.70;48.10;;;;;;5033726;28;20455;-69
2021/01/23 02:10:37;;;;;;;2.20;2.10;;;5.80;48.90;;;;;;5033870;28;20816;-67
2021/01/23 02:13:31;;;;;;;2.50;2.40;;;5.90;49.00;;;;;;5033866;28;20415;-67
2021/01/23 02:16:06;;;;;;;2.50;2.40;;;5.70;48.60;;;;;;5033749;28;20953;-67
2021/01/23 02:18:38;;;;;;;2.23;2.13;;;5.70;49.70;;;;;;5033582;28;20453;-67
2021/01/23 02:21:15;;;;;;;2.50;2.40;;;5.70;48.00;;;;;;5033722;28;20500;-69
2021/01/23 02:23:45;;;;;;;2.67;2.57;;;5.60;49.00;;;;;;5033519;28;20437;-69
2021/01/23 02:26:31;;;;;;;2.50;2.40;;;5.70;49.50;;;;;;5033384;28;20431;-69
2021/01/23 02:29:10;;;;;;;2.53;2.43;;;5.70;49.50;;;;;;5032083;28;20464;-69
2021/01/23 02:31:41;;;;;;;2.73;2.63;;;5.70;48.40;;;;;;5033602;28;20447;-69
2021/01/23 02:34:10;;;;;;;2.87;2.63;;;5.60;49.70;;;;;;5033509;28;20420;-69
2021/01/23 02:36:39;;;;;;;3.00;2.80;;;5.60;48.80;;;;;;5033311;28;20427;-69
2021/01/23 02:39:06;;;;;;;2.70;2.60;;;5.60;49.60;;;;;;5033383;28;20463;-69
2021/01/23 02:41:32;;;;;;;2.30;2.20;;;5.70;48.80;;;;;;5033399;28;20423;-70
2021/01/23 02:43:57;;;;;;;2.60;2.50;;;5.70;48.90;;;;;;5033388;28;20407;-69
2021/01/23 02:46:23;;;;;;;2.77;2.57;;;5.70;49.10;;;;;;5033256;28;20439;-69
2021/01/23 02:48:50;;;;;;;2.10;2.00;;;5.90;49.00;;;;;;5032930;28;20286;-70
2021/01/23 02:51:22;;;;;;;1.93;1.83;;;6.00;49.10;;;;;;5033218;28;20399;-70
2021/01/23 02:53:52;;;;;;;1.50;1.50;;;6.10;47.80;;;;;;5033253;28;20414;-69
2021/01/23 02:56:24;;;;;;;1.97;1.87;;;5.90;47.70;;;;;;5033178;28;20526;-69
2021/01/23 02:58:52;;;;;;;1.80;1.80;;;5.80;47.70;;;;;;5032901;28;20438;-69
2021/01/23 03:01:22;;;;;;;1.87;1.77;;;5.90;49.00;;;;;;5032925;28;20410;-70
2021/01/23 03:03:58;;;;;;;1.60;1.60;;;5.80;49.70;;;;;;5032969;28;20422;-67
2021/01/23 03:06:23;;;;;;;1.70;1.60;;;5.70;48.20;;;;;;5032807;28;20455;-70
2021/01/23 03:08:49;;;;;;;1.87;1.77;;;6.00;48.30;;;;;;5032213;28;20538;-69
2021/01/23 03:11:15;;;;;;;1.90;1.80;;;5.70;48.50;;;;;;5032197;28;20251;-70
2021/01/23 03:13:40;;;;;;;1.70;1.60;;;5.80;50.20;;;;;;5032690;28;20172;-69
2021/01/23 03:16:06;;;;;;;1.90;1.80;;;5.70;48.50;;;;;;5032474;28;20217;-69
2021/01/23 03:18:31;;;;;;;2.10;2.00;;;5.70;48.80;;;;;;5032439;28;20208;-69
2021/01/23 03:20:57;;;;;;;1.90;1.80;;;5.80;48.60;;;;;;5032562;28;20209;-69
2021/01/23 03:23:23;;;;;;;2.43;2.33;;;5.80;48.50;;;;;;5032406;28;20196;-69
2021/01/23 03:25:50;;;;;;;1.83;1.73;;;5.80;48.50;;;;;;5032390;28;20198;-69
2021/01/23 03:28:15;;;;;;;1.90;1.80;;;5.70;48.80;;;;;;5032175;28;20520;-69
2021/01/23 03:30:41;;;;;;;1.70;1.60;;;5.70;50.20;;;;;;5032284;28;20408;-69
2021/01/23 03:33:07;;;;;;;2.03;1.93;;;5.70;48.80;;;;;;5032359;28;20183;-69
2021/01/23 03:35:32;;;;;;;2.00;1.90;;;5.70;48.90;;;;;;5032255;28;20435;-69
2021/01/23 03:37:58;;;;;;;2.30;2.20;;;5.70;49.10;;;;;;5032109;28;20653;-69
2021/01/23 03:40:23;;;;;;;2.10;2.00;;;5.60;49.50;;;;;;5032287;28;20263;-69
2021/01/23 03:42:49;;;;;;;2.33;2.13;;;5.60;48.80;;;;;;5032123;28;20668;-69
2021/01/23 03:45:15;;;;;;;3.03;2.23;;;5.90;48.80;;;;;;5032000;28;20284;-69
2021/01/23 03:47:40;;;;;;;2.80;2.70;;;5.60;48.80;;;;;;5031770;28;20220;-69
2021/01/23 03:50:07;;;;;;;2.77;2.67;;;5.60;48.80;;;;;;5032093;28;20407;-70
2021/01/23 03:52:33;;;;;;;2.27;2.17;;;5.80;50.00;;;;;;5032277;28;20227;-69
2021/01/23 03:54:59;;;;;;;2.37;2.27;;;5.60;48.80;;;;;;5032207;28;20446;-69
2021/01/23 03:57:24;;;;;;;2.20;2.10;;;5.70;48.80;;;;;;5031482;28;21000;-69
2021/01/23 03:59:50;;;;;;;2.77;2.60;;;5.80;49.00;;;;;;5031869;28;20179;-69
2021/01/23 04:02:16;;;;;;;2.70;2.60;;;5.70;48.80;;;;;;5031763;28;20173;-69
2021/01/23 04:04:41;;;;;;;2.80;2.30;;;5.70;48.90;;;;;;5031785;28;20197;-69
2021/01/23 04:07:06;;;;;;;2.37;2.20;;;5.80;48.70;;;;;;5031458;28;20731;-69
2021/01/23 04:09:32;;;;;;;2.17;1.90;;;5.60;47.70;;;;;;5031675;28;20256;-70
2021/01/23 04:11:58;;;;;;;2.20;2.10;;;5.60;48.60;;;;;;5031576;28;20173;-69
2021/01/23 04:14:23;;;;;;;2.70;2.50;;;5.60;48.80;;;;;;5031480;28;20165;-69
2021/01/23 04:16:49;;;;;;;2.30;2.20;;;5.60;48.80;;;;;;5031519;28;20193;-69
2021/01/23 04:19:16;;;;;;;1.97;1.80;;;5.60;48.20;;;;;;5031286;28;20184;-69
2021/01/23 04:21:41;;;;;;;2.60;2.50;;;5.80;48.10;;;;;;5031304;28;20443;-70
2021/01/23 04:24:08;;;;;;;2.43;2.33;;;5.80;48.00;;;;;;5031305;28;20565;-69
2021/01/23 04:26:34;;;;;;;2.87;2.60;;;5.80;47.20;;;;;;5031268;28;20250;-69
2021/01/23 04:29:00;;;;;;;2.10;2.00;;;5.80;47.00;;;;;;5031095;28;20447;-69
2021/01/23 04:31:25;;;;;;;2.30;2.20;;;5.90;47.00;;;;;;5031303;28;20422;-69
2021/01/23 04:33:51;;;;;;;2.20;2.10;;;5.80;46.90;;;;;;5031258;28;20546;-69
2021/01/23 04:36:16;;;;;;;1.77;1.70;;;6.00;46.60;;;;;;5031213;28;20192;-69
2021/01/23 04:38:42;;;;;;;1.90;1.80;;;5.90;46.30;;;;;;5031086;28;20662;-69
2021/01/23 04:41:07;;;;;;;2.20;2.00;;;6.00;46.70;;;;;;5031218;28;20222;-69
2021/01/23 04:43:33;;;;;;;2.20;2.10;;;6.00;46.40;;;;;;5031097;28;20198;-69
2021/01/23 04:45:59;;;;;;;3.10;2.40;;;6.10;46.20;;;;;;5031107;28;20200;-69
2021/01/23 04:48:24;;;;;;;2.30;2.20;;;6.20;46.10;;;;;;5030697;28;20211;-69
2021/01/23 04:50:50;;;;;;;2.03;1.93;;;6.20;44.40;;;;;;5031034;28;20423;-69
2021/01/23 04:53:15;;;;;;;2.13;2.00;;;6.20;45.00;;;;;;5031062;28;20174;-70
2021/01/23 04:55:44;;;;;;;2.27;2.17;;;6.40;44.80;;;;;;5030917;28;20225;-69
2021/01/23 04:58:10;;;;;;;2.00;1.90;;;6.60;44.30;;;;;;5030702;28;20211;-69
2021/01/23 05:00:35;;;;;;;1.87;1.77;;;6.60;44.00;;;;;;5030932;28;20460;-70
2021/01/23 05:03:03;;;;;;;2.33;2.23;;;6.80;43.60;;;;;;5030913;28;20182;-69
2021/01/23 05:05:30;;;;;;;2.30;2.20;;;6.60;44.30;;;;;;5030800;28;20198;-70
2021/01/23 05:08:12;;;;;;;2.13;2.03;;;6.90;44.20;;;;;;5030730;28;20880;-69
2021/01/23 05:10:39;;;;;;;1.93;1.83;;;7.00;42.80;;;;;;5030984;28;20415;-70
2021/01/23 05:13:15;;;;;;;2.10;1.73;;;6.90;43.10;;;;;;5030892;28;20400;-69
2021/01/23 05:15:46;;;;;;;2.23;2.13;;;6.80;43.20;;;;;;5030661;28;20479;-69
2021/01/23 05:18:13;;;;;;;2.30;2.20;;;6.60;43.70;;;;;;5030804;28;20928;-69
2021/01/23 05:20:49;;;;;;;2.93;2.60;;;6.50;43.40;;;;;;5030775;28;20780;-67
2021/01/23 05:23:25;;;;;;;2.50;2.40;;;6.70;44.40;;;;;;5030601;28;20434;-67
2021/01/23 05:25:52;;;;;;;2.33;2.13;;;6.80;43.70;;;;;;5030590;28;20430;-69
2021/01/23 05:28:34;;;;;;;1.70;1.60;;;6.60;42.80;;;;;;5030514;28;20461;-69
2021/01/23 05:31:02;;;;;;;2.50;2.30;;;6.50;43.90;;;;;;5030717;28;20415;-70
2021/01/23 05:33:30;;;;;;;2.10;2.00;;;6.50;43.80;;;;;;5032503;28;20412;-69
2021/01/23 05:36:05;;;;;;;2.47;2.23;;;6.70;43.40;;;;;;5034567;28;20518;-70
2021/01/23 05:38:32;;;;;;;2.20;2.10;;;6.70;43.10;;;;;;5034346;28;20414;-70
2021/01/23 05:41:08;;;;;;;2.13;1.90;;;6.30;44.00;;;;;;5034416;28;20407;-70
2021/01/23 05:43:47;;;;;;;2.50;2.30;;;6.30;43.90;;;;;;5034452;28;20413;-69
2021/01/23 05:46:15;;;;;;;2.30;2.20;;;6.10;44.90;;;;;;5034355;28;20481;-70
2021/01/23 05:48:45;;;;;;;2.07;1.97;;;6.20;44.40;;;;;;5034122;28;20462;-69
2021/01/23 05:51:11;;;;;;;2.30;2.20;;;6.20;43.90;;;;;;5034283;28;20415;-67
2021/01/23 05:53:37;;;;;;;2.50;2.37;;;6.20;44.40;;;;;;5034229;28;20501;-69
2021/01/23 05:56:04;;;;;;;2.50;2.40;;;6.30;44.40;;;;;;5034125;28;20448;-70
2021/01/23 05:58:30;;;;;;;2.40;2.27;;;6.20;44.30;;;;;;5034063;28;20447;-69
2021/01/23 06:00:58;;;;;;;2.50;2.30;;;6.40;43.80;;;;;;5034122;28;20429;-69
2021/01/23 06:03:28;;;;;;;2.30;2.20;;;6.40;43.40;;;;;;5034058;28;20422;-69
2021/01/23 06:05:55;;;;;;;1.90;1.80;;;6.20;43.60;;;;;;5034028;28;20461;-69
2021/01/23 06:08:44;;;;;;;1.97;1.83;;;6.20;44.10;;;;;;5033750;28;20462;-69
2021/01/23 06:11:19;;;;;;;3.33;2.40;;;6.00;44.50;;;;;;5033790;28;20409;-70
2021/01/23 06:13:53;;;;;;;2.00;1.90;;;5.90;45.40;;;;;;5033833;28;20401;-69
2021/01/23 06:16:33;;;;;;;2.00;1.90;;;6.10;43.70;;;;;;5033701;28;20424;-70
2021/01/23 06:19:05;;;;;;;2.30;2.07;;;5.90;44.20;;;;;;5033545;28;20433;-70
2021/01/23 06:21:52;;;;;;;2.37;2.17;;;5.80;45.00;;;;;;5033594;28;20892;-69
2021/01/23 06:24:41;;;;;;;2.90;2.70;;;5.70;45.50;;;;;;5033547;28;20442;-69
2021/01/23 06:27:07;;;;;;;2.07;1.97;;;5.70;46.40;;;;;;5033116;28;20934;-69
2021/01/23 06:29:39;;;;;;;2.10;2.00;;;5.60;45.60;;;;;;5033527;28;20498;-69
2021/01/23 06:32:14;;;;;;;2.13;1.97;;;6.10;46.00;;;;;;5033232;28;20419;-69
2021/01/23 06:34:50;;;;;;;2.50;2.30;;;5.80;45.50;;;;;;5032324;28;20442;-69
2021/01/23 06:37:20;;;;;;;2.20;2.10;;;6.10;45.40;;;;;;5033220;28;20437;-69
2021/01/23 06:40:04;;;;;;;2.20;2.10;;;6.20;44.70;;;;;;5033427;28;20416;-69
2021/01/23 06:42:31;;;;;;;2.90;2.70;;;6.30;43.30;;;;;;5032791;28;20419;-70
2021/01/23 06:45:19;;;;;;;2.53;2.33;;;6.00;44.80;;;;;;5033234;28;20410;-70
2021/01/23 06:47:46;;;;;;;2.63;2.43;;;6.00;44.00;;;;;;5033014;28;20474;-70
2021/01/23 06:50:24;;;;;;;2.20;2.00;;;5.80;45.10;;;;;;5033259;28;20969;-69
2021/01/23 06:52:50;;;;;;;4.20;2.27;;;5.90;44.90;;;;;;5033079;28;20407;-71
2021/01/23 06:55:36;;;;;;;2.23;2.03;;;6.00;44.50;;;;;;5029978;28;20513;-70
2021/01/23 06:58:02;;;;;;;2.80;2.60;;;6.30;43.90;;;;;;5023469;28;20509;-71
2021/01/23 07:00:34;;;;;;;3.43;2.30;;;6.40;43.60;;;;;;5029136;28;20505;-69
2021/01/23 07:03:09;;;;;;;4.80;2.73;;;6.40;42.70;;;;;;5033060;28;20555;-70
2021/01/23 07:05:44;;;;;;;2.40;2.30;;;6.30;42.60;;;;;;5032802;28;20445;-69
2021/01/23 07:08:19;;;;;;;3.17;2.87;;;6.30;42.50;;;;;;5032652;28;20451;-68
2021/01/23 07:10:44;;;;;;;3.23;2.17;;;6.20;43.40;;;;;;5032896;28;20411;-69
2021/01/23 07:13:10;;;;;;;2.80;2.60;;;6.20;43.00;;;;;;5032674;28;20420;-69
2021/01/23 07:15:36;;;;;;;3.30;2.83;;;6.10;44.00;;;;;;5032387;28;20192;-69
2021/01/23 07:18:12;;;;;;;2.80;2.70;;;6.00;44.20;;;;;;5032488;28;20651;-69
2021/01/23 07:20:38;;;;;;;2.63;2.53;;;6.00;44.80;;;;;;5032504;28;20426;-69
2021/01/23 07:23:04;;;;;;;2.90;2.80;;;6.10;43.50;;;;;;5032396;28;20427;-69
2021/01/23 07:25:31;;;;;;;3.20;2.97;;;6.20;43.80;;;;;;5031720;28;20246;-70
2021/01/23 07:27:56;;;;;;;2.97;2.77;;;6.30;43.40;;;;;;5032331;28;20280;-69
2021/01/23 07:30:22;;;;;;;3.30;3.00;;;6.20;42.90;;;;;;5032634;28;20450;-70
2021/01/23 07:32:48;;;;;;;2.87;2.67;;;6.40;43.60;;;;;;5032003;28;20527;-70
2021/01/23 07:35:15;;;;;;;2.80;2.70;;;6.20;42.80;;;;;;5028921;28;20180;-69
2021/01/23 07:37:45;;;;;;;3.20;3.00;;;6.40;43.20;;;;;;5031615;28;20184;-70
2021/01/23 07:40:21;;;;;;;3.27;3.07;;;6.40;42.30;;;;;;5031627;28;20493;-70
2021/01/23 07:42:48;;;;;;;3.03;2.83;;;6.30;43.90;;;;;;5031816;28;20426;-70
2021/01/23 07:45:16;;;;;;;3.07;2.97;;;6.50;43.40;;;;;;5031751;28;20419;-70
2021/01/23 07:47:42;;;;;;;3.77;3.47;;;6.20;42.40;;;;;;5031359;28;20966;-69
2021/01/23 07:50:12;;;;;;;3.53;3.30;;;6.10;43.30;;;;;;5031804;28;20407;-69
2021/01/23 07:52:38;;;;;;;3.43;2.90;;;6.00;43.40;;;;;;5031380;28;20780;-70
2021/01/23 07:55:06;;;;;;;3.70;3.40;;;6.20;43.20;;;;;;5031113;28;20418;-70
2021/01/23 07:57:32;;;;;;;3.47;3.07;;;6.30;43.60;;;;;;5031403;28;20759;-70
2021/01/23 07:59:58;;;;;;;3.90;3.60;;;6.20;44.00;;;;;;5031601;28;20412;-72
2021/01/23 08:02:24;;;;;;;5.13;3.20;;;5.90;43.70;;;;;;5031293;28;20677;-69
2021/01/23 08:04:58;;;;;;;3.77;3.47;;;5.90;44.80;;;;;;5031494;28;20408;-69
2021/01/23 08:07:25;;;;;;;4.23;3.77;;;6.20;45.10;;;;;;5031195;28;20585;-69
2021/01/23 08:10:05;;;;;;;2.93;2.73;;;6.40;43.30;;;;;;5031068;28;20407;-69
2021/01/23 08:12:31;;;;;;;2.83;2.63;;;6.70;55.80;;;;;;5031502;28;20550;-69
2021/01/23 08:14:57;;;;;;;4.00;3.70;;;6.80;46.50;;;;;;5031087;28;20879;-69
2021/01/23 08:17:49;;;;;;;3.70;3.50;;;8.00;46.50;;;;;;5030941;28;20302;-68
2021/01/23 08:20:17;;;;;;;3.03;2.83;;;7.40;43.20;;;;;;5028998;28;20442;-69
2021/01/23 08:23:09;;;;;;;3.33;3.03;;;7.80;44.40;;;;;;5030777;28;21111;-68
2021/01/23 08:25:55;;;;;;;3.00;2.80;;;7.60;44.00;;;;;;5030955;28;20526;-68
2021/01/23 08:28:32;;;;;;;3.10;2.90;;;8.00;42.40;;;;;;5030762;28;21001;-68
2021/01/23 08:31:14;;;;;;;3.80;3.50;;;7.90;43.50;;;;;;5030482;28;20937;-69
2021/01/23 08:33:41;;;;;;;4.20;3.87;;;7.50;40.80;;;;;;5030685;28;20506;-70
2021/01/23 08:36:07;;;;;;;3.03;2.83;;;6.90;41.40;;;;;;5030402;28;20441;-70
2021/01/23 08:38:33;;;;;;;3.90;3.60;;;6.70;43.70;;;;;;5029936;28;20502;-70
2021/01/23 08:40:58;;;;;;;3.47;3.27;;;6.70;44.20;;;;;;5030385;28;20963;-67
2021/01/23 08:43:24;;;;;;;4.07;3.67;;;6.60;43.90;;;;;;5030555;28;20166;-70
2021/01/23 08:45:49;;;;;;;3.80;3.60;;;6.70;44.80;;;;;;5030121;28;20283;-69
2021/01/23 08:48:16;;;;;;;4.10;3.80;;;6.30;44.50;;;;;;5030304;28;20222;-70
2021/01/23 08:50:42;;;;;;;5.40;5.00;;;6.50;44.60;;;;;;5030699;28;20172;-69
2021/01/23 08:53:07;;;;;;;7.47;3.90;;;6.30;45.10;;;;;;5030255;28;20414;-69
2021/01/23 08:55:32;;;;;;;4.37;3.97;;;6.40;44.80;;;;;;5029725;28;20867;-69
2021/01/23 08:57:58;;;;;;;4.77;4.30;;;6.50;44.90;;;;;;5030798;28;20174;-69
2021/01/23 09:00:24;;;;;;;3.97;3.57;;;6.60;44.70;;;;;;5030992;28;20547;-70
2021/01/23 09:02:49;;;;;;;4.33;4.03;;;6.50;44.10;;;;;;5031011;28;20198;-69
2021/01/23 09:05:15;;;;;;;4.00;3.70;;;6.20;45.30;;;;;;5030963;28;20174;-69
2021/01/23 09:07:40;;;;;;;4.17;3.77;;;6.30;46.00;;;;;;5029894;28;20203;-69
2021/01/23 09:10:11;;;;;;;3.90;3.60;;;6.30;45.60;;;;;;5030830;28;20708;-68
2021/01/23 09:12:37;;;;;;;4.30;4.00;;;6.40;45.40;;;;;;5031022;28;20195;-70
2021/01/23 09:15:07;;;;;;;4.83;4.33;;;6.40;45.10;;;;;;5030982;28;20439;-69
2021/01/23 09:17:33;;;;;;;4.83;4.43;;;6.40;46.50;;;;;;5030882;28;20434;-69
2021/01/23 09:19:59;;;;;;;4.80;4.40;;;6.70;45.30;;;;;;5031026;28;20418;-69
2021/01/23 09:22:24;;;;;;;5.17;4.37;;;6.60;45.10;;;;;;5031042;28;20307;-69
2021/01/23 09:24:50;;;;;;;4.60;4.30;;;6.50;46.10;;;;;;5030634;28;20951;-69
2021/01/23 09:27:16;;;;;;;4.37;4.07;;;6.40;45.80;;;;;;5030432;28;20284;-69
2021/01/23 09:29:42;;;;;;;4.70;4.40;;;6.40;45.50;;;;;;5030720;28;20579;-68
2021/01/23 09:32:07;;;;;;;4.63;4.33;;;6.40;46.20;;;;;;5030588;28;20403;-70
2021/01/23 09:34:34;;;;;;;5.57;5.07;;;6.40;46.50;;;;;;5030430;28;20172;-70
2021/01/23 09:37:01;;;;;;;4.87;4.20;;;6.40;47.00;;;;;;5030365;28;20250;-69
2021/01/23 09:39:27;;;;;;;5.60;5.20;;;6.40;45.20;;;;;;5030278;28;20472;-70
2021/01/23 09:41:53;;;;;;;5.67;5.20;;;6.30;46.60;;;;;;5024995;28;20491;-70
2021/01/23 09:44:18;;;;;;;6.53;4.47;;;6.30;47.10;;;;;;5028516;28;20641;-70
2021/01/23 09:46:44;;;;;;;5.30;4.87;;;6.40;46.90;;;;;;5028544;28;20195;-70
2021/01/23 09:49:09;;;;;;;4.47;4.07;;;6.50;46.60;;;;;;5026763;28;20211;-71
2021/01/23 09:51:35;;;;;;;5.80;5.20;;;6.50;45.20;;;;;;5028753;28;20251;-70
2021/01/23 09:54:00;;;;;;;4.80;4.50;;;6.50;45.50;;;;;;5028553;28;20172;-70
2021/01/23 09:56:26;;;;;;;4.10;3.70;;;6.70;45.10;;;;;;5028280;28;20224;-71
2021/01/23 09:58:51;;;;;;;3.70;3.50;;;6.70;44.80;;;;;;5029763;28;20186;-71
2021/01/23 10:01:17;;;;;;;5.30;4.90;;;6.70;45.70;;;;;;5034322;28;20609;-68
2021/01/23 10:03:43;;;;;;;3.97;3.67;;;7.10;45.10;;;;;;5027017;28;20180;-69
2021/01/23 10:06:09;;;;;;;4.90;4.60;;;6.80;44.10;;;;;;5028475;28;20219;-68
2021/01/23 10:08:34;;;;;;;4.47;4.03;;;6.80;44.50;;;;;;5028041;28;20208;-69
2021/01/23 10:11:00;;;;;;;3.87;3.67;;;6.80;45.10;;;;;;5028029;28;20176;-67
2021/01/23 10:13:25;;;;;;;4.47;4.17;;;7.10;44.10;;;;;;5028198;28;20544;-69
2021/01/23 10:15:51;;;;;;;4.20;3.90;;;7.00;43.50;;;;;;5028263;28;20195;-67
2021/01/23 10:18:16;;;;;;;4.60;4.20;;;7.00;43.80;;;;;;5027863;28;20184;-67
2021/01/23 10:20:42;;;;;;;4.30;3.97;;;7.10;42.80;;;;;;5031780;28;20187;-67
2021/01/23 10:23:07;;;;;;;3.90;3.60;;;7.10;43.30;;;;;;5013272;28;20601;-66
2021/01/23 10:25:33;;;;;;;3.80;3.50;;;7.10;43.40;;;;;;5031238;28;20623;-69
2021/01/23 10:27:58;;;;;;;3.70;3.40;;;7.10;43.50;;;;;;5031615;28;20239;-69
2021/01/23 10:30:25;;;;;;;4.23;3.93;;;7.20;43.70;;;;;;5030551;28;20288;-66
2021/01/23 10:32:50;;;;;;;4.43;4.03;;;7.20;43.60;;;;;;5032157;28;20221;-70
2021/01/23 10:35:17;;;;;;;4.17;3.87;;;7.10;43.90;;;;;;5032112;28;20408;-69
2021/01/23 10:37:43;;;;;;;4.10;3.60;;;7.00;43.60;;;;;;5031245;28;20183;-67
2021/01/23 10:41:30;;;;;;;3.47;3.23;;;7.10;44.40;;;;;;5084638;27;20972;-64
2021/01/23 10:43:55;;;;;;;4.30;3.90;;;7.00;45.10;;;;;;5085433;28;20476;-68
2021/01/23 10:46:21;;;;;;;3.97;3.67;;;7.10;44.40;;;;;;5086794;28;20685;-68
2021/01/23 10:48:46;;;;;;;3.67;3.47;;;7.20;44.40;;;;;;5085517;28;20193;-68
2021/01/23 10:51:12;;;;;;;4.10;3.73;;;6.90;44.40;;;;;;5086822;28;20178;-67
2021/01/23 10:53:37;;;;;;;22.03;17.03;;;6.80;46.00;;;;;;5086062;28;20168;-67
2021/01/23 10:56:04;;;;;;;3.73;3.47;;;6.70;45.30;;;;;;5085822;28;20201;-67
2021/01/23 10:58:30;;;;;;;3.40;3.20;;;7.00;44.80;;;;;;5085856;28;20174;-68
2021/01/23 11:00:55;;;;;;;3.93;3.53;;;7.10;44.50;;;;;;5085917;28;20508;-68
2021/01/23 11:03:21;;;;;;;3.47;3.17;;;7.00;45.00;;;;;;5085807;28;20250;-67
2021/01/23 11:05:46;;;;;;;3.23;3.00;;;7.10;44.00;;;;;;5085933;28;20192;-68
2021/01/23 11:08:12;;;;;;;3.37;2.97;;;7.10;45.10;;;;;;5085785;28;20222;-68
2021/01/23 11:10:38;;;;;;;3.30;3.10;;;7.10;44.10;;;;;;5086235;28;20181;-69
2021/01/23 11:13:03;;;;;;;3.40;3.17;;;7.30;43.30;;;;;;5087733;28;20628;-67
2021/01/23 11:15:29;;;;;;;7.13;2.87;;;7.20;43.70;;;;;;5087611;28;20435;-67
2021/01/23 11:17:55;;;;;;;3.40;3.20;;;7.40;43.00;;;;;;5087570;28;20177;-67
2021/01/23 11:20:20;;;;;;;3.10;2.90;;;7.30;43.90;;;;;;5087704;28;20209;-67
2021/01/23 11:22:46;;;;;;;4.27;3.97;;;7.40;42.90;;;;;;5087614;28;20174;-67
2021/01/23 11:25:13;;;;;;;3.73;3.07;;;7.00;43.50;;;;;;5087518;28;20170;-67
2021/01/23 11:27:39;;;;;;;3.47;3.17;;;7.10;43.70;;;;;;5087215;28;20516;-67
2021/01/23 11:30:07;;;;;;;2.97;2.77;;;7.10;43.20;;;;;;5087449;28;20491;-67
2021/01/23 11:32:32;;;;;;;2.90;2.70;;;7.30;43.30;;;;;;5087447;28;20722;-67
2021/01/23 11:34:58;;;;;;;3.47;3.27;;;7.50;42.80;;;;;;5080945;28;20434;-68
2021/01/23 11:37:23;;;;;;;2.87;2.77;;;7.00;44.50;;;;;;5061486;28;20226;-67
2021/01/23 11:39:49;;;;;;;2.97;2.77;;;6.90;44.80;;;;;;5045139;28;20206;-68
2021/01/23 11:42:14;;;;;;;3.37;3.07;;;7.20;44.00;;;;;;5046334;28;20611;-68
2021/01/23 11:44:40;;;;;;;8.83;4.00;;;7.30;44.50;;;;;;5046713;28;20176;-69
2021/01/23 11:47:05;;;;;;;4.27;3.47;;;7.20;43.90;;;;;;5046444;28;20607;-68
2021/01/23 11:49:31;;;;;;;3.97;2.97;;;7.30;43.50;;;;;;5045913;28;20667;-67
2021/01/23 11:51:57;;;;;;;4.20;3.00;;;7.40;43.80;;;;;;5038571;28;20184;-68
2021/01/23 11:54:22;;;;;;;4.00;3.60;;;7.50;43.10;;;;;;5033448;28;20247;-68
2021/01/23 11:56:47;;;;;;;2.80;2.60;;;7.50;42.70;;;;;;5032858;28;20215;-67
2021/01/23 11:59:13;;;;;;;3.23;2.70;;;7.60;41.40;;;;;;5032997;28;20185;-68
2021/01/23 12:01:39;;;;;;;2.47;2.37;;;7.80;41.30;;;;;;5033085;28;20200;-67
2021/01/23 12:04:04;;;;;;;2.93;2.60;;;7.80;41.70;;;;;;5032690;28;20225;-67
2021/01/23 12:06:30;;;;;;;3.60;2.93;;;7.80;41.80;;;;;;5032830;28;20204;-67
2021/01/23 12:08:56;;;;;;;3.00;2.80;;;7.80;41.30;;;;;;5032787;28;20233;-67
2021/01/23 12:11:21;;;;;;;3.00;2.80;;;7.60;40.60;;;;;;5032630;28;20188;-68
2021/01/23 12:13:47;;;;;;;2.67;2.50;;;7.50;40.70;;;;;;5032994;28;20664;-68
2021/01/23 12:16:12;;;;;;;3.40;2.30;;;7.40;41.80;;;;;;5032821;28;20200;-67
2021/01/23 12:18:37;;;;;;;3.53;3.33;;;7.50;41.10;;;;;;5032403;28;20180;-68
2021/01/23 12:21:03;;;;;;;3.00;2.80;;;7.60;41.10;;;;;;5032754;28;20215;-67
2021/01/23 12:23:29;;;;;;;3.27;3.00;;;7.80;40.80;;;;;;5032726;28;20180;-67
2021/01/23 12:25:54;;;;;;;2.73;2.40;;;8.00;40.60;;;;;;5032326;28;20193;-67
2021/01/23 12:28:20;;;;;;;3.10;2.73;;;8.00;41.20;;;;;;5032531;28;20256;-68
2021/01/23 12:30:45;;;;;;;2.60;2.40;;;8.10;39.40;;;;;;5032626;28;20647;-67
2021/01/23 12:33:11;;;;;;;2.93;2.60;;;8.10;39.30;;;;;;5032483;28;20181;-67
2021/01/23 12:35:36;;;;;;;2.77;2.57;;;8.20;40.40;;;;;;5032405;28;20228;-67
2021/01/23 12:38:02;;;;;;;2.90;2.70;;;8.10;38.50;;;;;;5032108;28;20173;-67
2021/01/23 12:40:28;;;;;;;4.53;2.30;;;8.20;39.60;;;;;;5032007;28;20211;-68
2021/01/23 12:42:53;;;;;;;2.90;2.47;;;8.10;37.90;;;;;;5032601;28;20177;-68
2021/01/23 12:45:19;;;;;;;3.00;2.73;;;8.00;38.00;;;;;;5032256;28;20610;-67
2021/01/23 12:47:44;;;;;;;4.03;2.30;;;7.80;38.50;;;;;;5031787;28;20415;-68
2021/01/23 12:50:12;;;;;;;3.73;2.60;;;8.10;39.30;;;;;;5032102;28;20177;-68
2021/01/23 12:52:38;;;;;;;2.50;2.40;;;8.10;37.40;;;;;;5032334;28;20758;-67
2021/01/23 12:55:08;;;;;;;4.47;2.70;;;8.10;38.20;;;;;;5031748;28;20454;-67
2021/01/23 12:57:40;;;;;;;3.10;2.40;;;7.60;38.60;;;;;;5015964;28;20427;-68
2021/01/23 13:00:10;;;;;;;2.60;2.40;;;7.60;37.90;;;;;;5027211;28;20462;-68
2021/01/23 13:02:36;;;;;;;2.63;2.53;;;7.80;40.20;;;;;;5020130;28;20431;-69